Notice: Undefined index: language in D:\xampp\htdocs\vam\index.php on line 25
Open Air Virtual

 METAR AND TAF INFORMATION
METAR FOR ENSG
ADDS - METARS form results

(1451 UTC 04 June 2020)
Data provider http://aviationweather.gov/metar/data/
 
METAR text: ENSG 041420Z 06005KT 9999 FEW041 BKN050 13/05 Q0998 RMK WIND 3806FT 11014KT
Conditions at: ENSG (SOGNDAL/HAUKASEN, NO) observed 1420 UTC 04 June 2020
Temperature: 13.0°C (55°F)
Dewpoint: 5.0°C (41°F) [RH = 58%]
Pressure (altimeter): 29.47 inches Hg (998.0 mb)
Winds: from the ENE (60 degrees) at 6 MPH (5 knots; 2.6 m/s)
Visibility: 6 or more miles (10+ km)
Ceiling: 5000 feet AGL
Clouds: few clouds at 4100 feet AGL
broken clouds at 5000 feet AGL
Weather: no significant weather observed at this time

 AIRPORT MAP

 RUNWAY INFORMATION
Runway 06 Runway length 3150 ft Runway width 0 ft
Runway elevation 1619 ft Runway displaced threshold 0 ft Runway heading 0
Runway 24 Runway length 3150 ft Runway width 0 ft
Runway elevation 1634 ft Runway displaced threshold 0 ft Runway heading 0

 AIRPORT FREQUENCIES
Type AFIS Name Sogndal Frequency 119.3 MHZ
Type INFO Name Sogndal In Frequency 121.5 MHZ

 AIRPORT NEAR NAVIGATION AIDS
Type VOR-DME Name Sogndal Frequency 114200 KHZ



Powered by Virtual Airlines Manager [v2.6.2]